sensor_id;sensor_type;location;lat;lon;timestamp;temperature;humidity
13652;DHT22;6899;51.546;6.912;2022-09-13T00:01:02;16.20;99.90
13652;DHT22;6899;51.546;6.912;2022-09-13T00:03:30;16.10;99.90
13652;DHT22;6899;51.546;6.912;2022-09-13T00:05:57;16.10;99.90
13652;DHT22;6899;51.546;6.912;2022-09-13T00:08:26;16.10;99.90
13652;DHT22;6899;51.546;6.912;2022-09-13T00:10:52;16.20;99.90
13652;DHT22;6899;51.546;6.912;2022-09-13T00:13:19;16.20;99.90
13652;DHT22;6899;51.546;6.912;2022-09-13T00:15:48;16.30;99.90
13652;DHT22;6899;51.546;6.912;2022-09-13T00:18:17;16.30;99.90
13652;DHT22;6899;51.546;6.912;2022-09-13T00:20:44;16.40;99.90
13652;DHT22;6899;51.546;6.912;2022-09-13T00:23:11;16.40;99.90
13652;DHT22;6899;51.546;6.912;2022-09-13T00:25:38;16.50;99.90
13652;DHT22;6899;51.546;6.912;2022-09-13T00:28:06;16.50;99.90
13652;DHT22;6899;51.546;6.912;2022-09-13T00:30:32;16.50;99.90
13652;DHT22;6899;51.546;6.912;2022-09-13T00:33:01;16.40;99.90
13652;DHT22;6899;51.546;6.912;2022-09-13T00:35:29;16.40;99.90
13652;DHT22;6899;51.546;6.912;2022-09-13T00:37:58;16.40;99.90
13652;DHT22;6899;51.546;6.912;2022-09-13T00:40:25;16.20;99.90
13652;DHT22;6899;51.546;6.912;2022-09-13T00:42:54;16.20;99.90
13652;DHT22;6899;51.546;6.912;2022-09-13T00:45:21;16.10;99.90
13652;DHT22;6899;51.546;6.912;2022-09-13T00:47:52;16.10;99.90
13652;DHT22;6899;51.546;6.912;2022-09-13T00:50:24;16.10;99.90
13652;DHT22;6899;51.546;6.912;2022-09-13T00:53:00;16.10;99.90
13652;DHT22;6899;51.546;6.912;2022-09-13T00:55:33;16.20;99.90
13652;DHT22;6899;51.546;6.912;2022-09-13T00:58:04;16.10;99.90
13652;DHT22;6899;51.546;6.912;2022-09-13T01:00:32;16.10;99.90
13652;DHT22;6899;51.546;6.912;2022-09-13T01:03:03;16.00;99.90
13652;DHT22;6899;51.546;6.912;2022-09-13T01:05:34;15.90;99.90
13652;DHT22;6899;51.546;6.912;2022-09-13T01:08:02;15.80;99.90
13652;DHT22;6899;51.546;6.912;2022-09-13T01:10:34;15.70;99.90
13652;DHT22;6899;51.546;6.912;2022-09-13T01:13:07;15.70;99.90
13652;DHT22;6899;51.546;6.912;2022-09-13T01:15:39;15.70;99.90
13652;DHT22;6899;51.546;6.912;2022-09-13T01:18:07;15.70;99.90
13652;DHT22;6899;51.546;6.912;2022-09-13T01:20:47;15.70;99.90
13652;DHT22;6899;51.546;6.912;2022-09-13T01:30:07;15.80;99.90
13652;DHT22;6899;51.546;6.912;2022-09-13T01:32:44;15.70;99.90
13652;DHT22;6899;51.546;6.912;2022-09-13T01:35:20;15.70;99.90
13652;DHT22;6899;51.546;6.912;2022-09-13T01:37:52;15.70;99.90
13652;DHT22;6899;51.546;6.912;2022-09-13T01:40:34;15.70;99.90
13652;DHT22;6899;51.546;6.912;2022-09-13T01:43:17;15.70;99.90
13652;DHT22;6899;51.546;6.912;2022-09-13T01:45:52;15.80;99.90
13652;DHT22;6899;51.546;6.912;2022-09-13T01:48:31;15.80;99.90
13652;DHT22;6899;51.546;6.912;2022-09-13T01:51:04;15.90;99.90
13652;DHT22;6899;51.546;6.912;2022-09-13T01:53:39;16.00;99.90
13652;DHT22;6899;51.546;6.912;2022-09-13T01:56:11;16.00;99.90
13652;DHT22;6899;51.546;6.912;2022-09-13T01:58:47;16.10;99.90
13652;DHT22;6899;51.546;6.912;2022-09-13T02:01:18;16.20;99.90
13652;DHT22;6899;51.546;6.912;2022-09-13T02:03:51;16.20;99.90
13652;DHT22;6899;51.546;6.912;2022-09-13T02:06:22;16.30;99.90
13652;DHT22;6899;51.546;6.912;2022-09-13T02:08:54;16.30;99.90
13652;DHT22;6899;51.546;6.912;2022-09-13T02:11:22;16.40;99.90
13652;DHT22;6899;51.546;6.912;2022-09-13T02:13:53;16.50;99.90
13652;DHT22;6899;51.546;6.912;2022-09-13T02:16:28;16.50;99.90
13652;DHT22;6899;51.546;6.912;2022-09-13T02:18:58;16.60;99.90
13652;DHT22;6899;51.546;6.912;2022-09-13T02:21:32;16.60;99.90
13652;DHT22;6899;51.546;6.912;2022-09-13T02:24:06;16.60;99.90
13652;DHT22;6899;51.546;6.912;2022-09-13T02:26:35;16.60;99.90
13652;DHT22;6899;51.546;6.912;2022-09-13T02:29:07;16.60;99.90
13652;DHT22;6899;51.546;6.912;2022-09-13T02:31:40;16.60;99.90
13652;DHT22;6899;51.546;6.912;2022-09-13T02:34:13;16.70;99.90
13652;DHT22;6899;51.546;6.912;2022-09-13T02:36:43;16.70;99.90
13652;DHT22;6899;51.546;6.912;2022-09-13T02:39:13;16.70;99.90
13652;DHT22;6899;51.546;6.912;2022-09-13T02:41:45;16.80;99.90
13652;DHT22;6899;51.546;6.912;2022-09-13T02:44:21;16.80;99.90
13652;DHT22;6899;51.546;6.912;2022-09-13T02:47:03;16.80;99.90
13652;DHT22;6899;51.546;6.912;2022-09-13T02:49:37;16.80;99.90
13652;DHT22;6899;51.546;6.912;2022-09-13T02:52:08;16.80;99.90
13652;DHT22;6899;51.546;6.912;2022-09-13T02:54:41;16.90;99.90
13652;DHT22;6899;51.546;6.912;2022-09-13T02:57:13;16.90;99.90
13652;DHT22;6899;51.546;6.912;2022-09-13T02:59:45;16.90;99.90
13652;DHT22;6899;51.546;6.912;2022-09-13T03:02:15;17.00;99.90
13652;DHT22;6899;51.546;6.912;2022-09-13T03:04:43;17.00;99.90
13652;DHT22;6899;51.546;6.912;2022-09-13T03:07:11;17.00;99.90
13652;DHT22;6899;51.546;6.912;2022-09-13T03:09:42;17.00;99.90
13652;DHT22;6899;51.546;6.912;2022-09-13T03:12:37;17.00;99.90
13652;DHT22;6899;51.546;6.912;2022-09-13T03:15:13;17.10;99.90
13652;DHT22;6899;51.546;6.912;2022-09-13T03:17:53;17.10;99.90
13652;DHT22;6899;51.546;6.912;2022-09-13T03:20:29;17.10;99.90
13652;DHT22;6899;51.546;6.912;2022-09-13T03:23:21;17.00;99.90
13652;DHT22;6899;51.546;6.912;2022-09-13T03:26:08;17.00;99.90
13652;DHT22;6899;51.546;6.912;2022-09-13T03:28:44;17.00;99.90
13652;DHT22;6899;51.546;6.912;2022-09-13T03:31:18;16.90;99.90
13652;DHT22;6899;51.546;6.912;2022-09-13T03:33:54;17.00;99.90
13652;DHT22;6899;51.546;6.912;2022-09-13T03:36:26;16.90;99.90
13652;DHT22;6899;51.546;6.912;2022-09-13T03:39:00;16.90;99.90
13652;DHT22;6899;51.546;6.912;2022-09-13T03:41:32;16.80;99.90
13652;DHT22;6899;51.546;6.912;2022-09-13T03:44:02;16.80;99.90
13652;DHT22;6899;51.546;6.912;2022-09-13T03:46:35;16.70;99.90
13652;DHT22;6899;51.546;6.912;2022-09-13T03:49:08;16.70;99.90
13652;DHT22;6899;51.546;6.912;2022-09-13T03:51:36;16.60;99.90
13652;DHT22;6899;51.546;6.912;2022-09-13T03:54:06;16.50;99.90
13652;DHT22;6899;51.546;6.912;2022-09-13T03:56:34;16.40;99.90
13652;DHT22;6899;51.546;6.912;2022-09-13T03:59:01;16.20;99.90
13652;DHT22;6899;51.546;6.912;2022-09-13T04:01:28;16.10;99.90
13652;DHT22;6899;51.546;6.912;2022-09-13T04:03:55;16.10;99.90
13652;DHT22;6899;51.546;6.912;2022-09-13T04:06:24;16.10;99.90
13652;DHT22;6899;51.546;6.912;2022-09-13T04:08:50;15.90;99.90
13652;DHT22;6899;51.546;6.912;2022-09-13T04:11:17;15.90;99.90
13652;DHT22;6899;51.546;6.912;2022-09-13T04:13:46;15.80;99.90
13652;DHT22;6899;51.546;6.912;2022-09-13T04:16:12;15.80;99.90
13652;DHT22;6899;51.546;6.912;2022-09-13T04:18:39;15.70;99.90
13652;DHT22;6899;51.546;6.912;2022-09-13T04:21:07;15.70;99.90
13652;DHT22;6899;51.546;6.912;2022-09-13T04:23:35;15.70;99.90
13652;DHT22;6899;51.546;6.912;2022-09-13T04:26:04;15.70;99.90
13652;DHT22;6899;51.546;6.912;2022-09-13T04:28:31;15.70;99.90
13652;DHT22;6899;51.546;6.912;2022-09-13T04:30:58;15.70;99.90
13652;DHT22;6899;51.546;6.912;2022-09-13T04:33:27;15.60;99.90
13652;DHT22;6899;51.546;6.912;2022-09-13T04:35:56;15.60;99.90
13652;DHT22;6899;51.546;6.912;2022-09-13T04:38:23;15.60;99.90
13652;DHT22;6899;51.546;6.912;2022-09-13T04:40:56;15.60;99.90
13652;DHT22;6899;51.546;6.912;2022-09-13T04:43:23;15.60;99.90
13652;DHT22;6899;51.546;6.912;2022-09-13T04:45:50;15.70;99.90
13652;DHT22;6899;51.546;6.912;2022-09-13T04:48:17;15.70;99.90
13652;DHT22;6899;51.546;6.912;2022-09-13T04:50:44;15.60;99.90
13652;DHT22;6899;51.546;6.912;2022-09-13T04:53:12;15.70;99.90
13652;DHT22;6899;51.546;6.912;2022-09-13T04:55:38;15.70;99.90
13652;DHT22;6899;51.546;6.912;2022-09-13T04:58:07;15.70;99.90
13652;DHT22;6899;51.546;6.912;2022-09-13T05:00:34;15.80;99.90
13652;DHT22;6899;51.546;6.912;2022-09-13T05:03:01;16.00;99.90
13652;DHT22;6899;51.546;6.912;2022-09-13T05:05:27;16.00;99.90
13652;DHT22;6899;51.546;6.912;2022-09-13T05:07:56;16.10;99.90
13652;DHT22;6899;51.546;6.912;2022-09-13T05:10:23;16.10;99.90
13652;DHT22;6899;51.546;6.912;2022-09-13T05:12:51;16.20;99.90
13652;DHT22;6899;51.546;6.912;2022-09-13T05:15:19;16.20;99.90
13652;DHT22;6899;51.546;6.912;2022-09-13T05:17:46;16.30;99.90
13652;DHT22;6899;51.546;6.912;2022-09-13T05:20:13;16.30;99.90
13652;DHT22;6899;51.546;6.912;2022-09-13T05:22:40;16.30;99.90
13652;DHT22;6899;51.546;6.912;2022-09-13T05:25:07;16.40;99.90
13652;DHT22;6899;51.546;6.912;2022-09-13T05:27:34;16.40;99.90
13652;DHT22;6899;51.546;6.912;2022-09-13T05:30:02;16.40;99.90
13652;DHT22;6899;51.546;6.912;2022-09-13T05:32:31;16.50;99.90
13652;DHT22;6899;51.546;6.912;2022-09-13T05:34:58;16.60;99.90
13652;DHT22;6899;51.546;6.912;2022-09-13T05:37:25;16.60;99.90
13652;DHT22;6899;51.546;6.912;2022-09-13T05:39:52;16.70;99.90
13652;DHT22;6899;51.546;6.912;2022-09-13T05:42:19;16.80;99.90
13652;DHT22;6899;51.546;6.912;2022-09-13T05:44:45;16.90;99.90
13652;DHT22;6899;51.546;6.912;2022-09-13T05:47:12;16.90;99.90
13652;DHT22;6899;51.546;6.912;2022-09-13T05:49:41;17.00;99.90
13652;DHT22;6899;51.546;6.912;2022-09-13T05:52:08;17.00;99.90
13652;DHT22;6899;51.546;6.912;2022-09-13T05:54:34;17.10;99.90
13652;DHT22;6899;51.546;6.912;2022-09-13T05:57:02;17.10;99.90
13652;DHT22;6899;51.546;6.912;2022-09-13T05:59:29;17.10;99.90
13652;DHT22;6899;51.546;6.912;2022-09-13T06:01:57;17.10;99.90
13652;DHT22;6899;51.546;6.912;2022-09-13T06:04:23;17.10;99.90
13652;DHT22;6899;51.546;6.912;2022-09-13T06:06:52;17.10;99.90
13652;DHT22;6899;51.546;6.912;2022-09-13T06:09:19;17.20;99.90
13652;DHT22;6899;51.546;6.912;2022-09-13T06:11:45;17.20;99.90
13652;DHT22;6899;51.546;6.912;2022-09-13T06:14:12;17.30;99.90
13652;DHT22;6899;51.546;6.912;2022-09-13T06:16:39;17.30;99.90
13652;DHT22;6899;51.546;6.912;2022-09-13T06:19:06;17.30;99.90
13652;DHT22;6899;51.546;6.912;2022-09-13T06:21:33;17.30;99.90
13652;DHT22;6899;51.546;6.912;2022-09-13T06:24:02;17.40;99.90
13652;DHT22;6899;51.546;6.912;2022-09-13T06:26:29;17.40;99.90
13652;DHT22;6899;51.546;6.912;2022-09-13T06:28:57;17.40;99.90
13652;DHT22;6899;51.546;6.912;2022-09-13T06:31:25;17.40;99.90
13652;DHT22;6899;51.546;6.912;2022-09-13T06:33:55;17.40;99.90
13652;DHT22;6899;51.546;6.912;2022-09-13T06:36:23;17.50;99.90
13652;DHT22;6899;51.546;6.912;2022-09-13T06:38:50;17.50;99.90
13652;DHT22;6899;51.546;6.912;2022-09-13T06:41:20;17.60;99.90
13652;DHT22;6899;51.546;6.912;2022-09-13T06:43:52;17.70;99.90
13652;DHT22;6899;51.546;6.912;2022-09-13T06:46:19;17.90;99.90
13652;DHT22;6899;51.546;6.912;2022-09-13T06:48:47;18.00;99.90
13652;DHT22;6899;51.546;6.912;2022-09-13T06:51:16;18.20;99.90
13652;DHT22;6899;51.546;6.912;2022-09-13T06:53:44;18.50;99.90
13652;DHT22;6899;51.546;6.912;2022-09-13T06:56:13;18.70;99.90
13652;DHT22;6899;51.546;6.912;2022-09-13T06:58:43;18.80;99.90
13652;DHT22;6899;51.546;6.912;2022-09-13T07:01:12;19.10;99.90
13652;DHT22;6899;51.546;6.912;2022-09-13T07:03:41;19.40;99.90
13652;DHT22;6899;51.546;6.912;2022-09-13T07:06:10;19.70;99.90
13652;DHT22;6899;51.546;6.912;2022-09-13T07:08:38;20.10;99.90
13652;DHT22;6899;51.546;6.912;2022-09-13T07:11:06;20.50;99.90
13652;DHT22;6899;51.546;6.912;2022-09-13T07:13:34;20.80;99.90
13652;DHT22;6899;51.546;6.912;2022-09-13T07:16:04;21.60;99.90
13652;DHT22;6899;51.546;6.912;2022-09-13T07:18:31;22.70;99.90
13652;DHT22;6899;51.546;6.912;2022-09-13T07:20:59;23.50;99.90
13652;DHT22;6899;51.546;6.912;2022-09-13T07:23:29;23.40;99.90
13652;DHT22;6899;51.546;6.912;2022-09-13T07:25:56;23.40;99.90
13652;DHT22;6899;51.546;6.912;2022-09-13T07:28:27;23.00;99.90
13652;DHT22;6899;51.546;6.912;2022-09-13T07:30:55;22.80;99.90
13652;DHT22;6899;51.546;6.912;2022-09-13T07:33:25;22.50;99.90
13652;DHT22;6899;51.546;6.912;2022-09-13T07:35:55;22.60;99.90
13652;DHT22;6899;51.546;6.912;2022-09-13T07:38:22;22.60;99.90
13652;DHT22;6899;51.546;6.912;2022-09-13T07:40:53;22.40;99.90
13652;DHT22;6899;51.546;6.912;2022-09-13T07:43:23;22.40;99.90
13652;DHT22;6899;51.546;6.912;2022-09-13T07:45:56;22.10;99.90
13652;DHT22;6899;51.546;6.912;2022-09-13T07:48:25;21.80;99.90
13652;DHT22;6899;51.546;6.912;2022-09-13T07:50:59;21.60;99.90
13652;DHT22;6899;51.546;6.912;2022-09-13T07:53:26;21.40;99.90
13652;DHT22;6899;51.546;6.912;2022-09-13T07:55:53;21.80;99.90
13652;DHT22;6899;51.546;6.912;2022-09-13T07:58:25;22.10;99.90
13652;DHT22;6899;51.546;6.912;2022-09-13T08:00:52;22.50;99.90
13652;DHT22;6899;51.546;6.912;2022-09-13T08:03:18;23.10;99.90
13652;DHT22;6899;51.546;6.912;2022-09-13T08:05:47;23.50;99.90
13652;DHT22;6899;51.546;6.912;2022-09-13T08:08:13;23.50;99.90
13652;DHT22;6899;51.546;6.912;2022-09-13T08:10:40;23.50;99.90
13652;DHT22;6899;51.546;6.912;2022-09-13T08:13:07;23.70;99.90
13652;DHT22;6899;51.546;6.912;2022-09-13T08:15:34;23.60;99.90
13652;DHT22;6899;51.546;6.912;2022-09-13T08:18:01;23.50;99.90
13652;DHT22;6899;51.546;6.912;2022-09-13T08:20:28;23.50;99.90
13652;DHT22;6899;51.546;6.912;2022-09-13T08:22:56;23.40;99.90
13652;DHT22;6899;51.546;6.912;2022-09-13T08:25:23;23.40;99.90
13652;DHT22;6899;51.546;6.912;2022-09-13T08:27:52;23.50;99.90
13652;DHT22;6899;51.546;6.912;2022-09-13T08:30:19;23.40;99.90
13652;DHT22;6899;51.546;6.912;2022-09-13T08:32:49;23.30;99.90
13652;DHT22;6899;51.546;6.912;2022-09-13T08:35:16;23.20;99.90
13652;DHT22;6899;51.546;6.912;2022-09-13T08:37:43;22.90;99.90
13652;DHT22;6899;51.546;6.912;2022-09-13T08:40:11;22.80;99.90
13652;DHT22;6899;51.546;6.912;2022-09-13T08:42:47;23.10;99.90
13652;DHT22;6899;51.546;6.912;2022-09-13T08:45:16;23.40;99.90
13652;DHT22;6899;51.546;6.912;2022-09-13T08:47:47;23.80;99.90
13652;DHT22;6899;51.546;6.912;2022-09-13T08:50:19;24.30;99.90
13652;DHT22;6899;51.546;6.912;2022-09-13T08:52:53;24.80;99.90
13652;DHT22;6899;51.546;6.912;2022-09-13T08:55:38;24.70;99.90
13652;DHT22;6899;51.546;6.912;2022-09-13T09:01:00;24.80;99.90
13652;DHT22;6899;51.546;6.912;2022-09-13T09:03:37;25.00;99.90
13652;DHT22;6899;51.546;6.912;2022-09-13T09:06:11;25.10;99.90
13652;DHT22;6899;51.546;6.912;2022-09-13T09:08:42;25.20;99.90
13652;DHT22;6899;51.546;6.912;2022-09-13T09:11:18;25.50;99.90
13652;DHT22;6899;51.546;6.912;2022-09-13T09:13:50;25.60;99.90
13652;DHT22;6899;51.546;6.912;2022-09-13T09:16:27;25.80;99.90
13652;DHT22;6899;51.546;6.912;2022-09-13T09:19:02;25.60;99.80
13652;DHT22;6899;51.546;6.912;2022-09-13T09:21:32;25.60;99.90
13652;DHT22;6899;51.546;6.912;2022-09-13T09:24:01;25.70;99.90
13652;DHT22;6899;51.546;6.912;2022-09-13T09:26:30;25.80;99.90
13652;DHT22;6899;51.546;6.912;2022-09-13T09:28:59;26.10;99.90
13652;DHT22;6899;51.546;6.912;2022-09-13T09:31:30;26.20;99.90
13652;DHT22;6899;51.546;6.912;2022-09-13T09:34:09;26.30;98.80
13652;DHT22;6899;51.546;6.912;2022-09-13T09:36:40;26.80;98.20
13652;DHT22;6899;51.546;6.912;2022-09-13T09:39:11;26.90;97.20
13652;DHT22;6899;51.546;6.912;2022-09-13T09:41:40;27.30;99.90
13652;DHT22;6899;51.546;6.912;2022-09-13T09:44:16;27.50;93.10
13652;DHT22;6899;51.546;6.912;2022-09-13T09:46:48;27.50;96.10
13652;DHT22;6899;51.546;6.912;2022-09-13T09:49:20;27.30;96.30
13652;DHT22;6899;51.546;6.912;2022-09-13T09:52:09;27.50;92.60
13652;DHT22;6899;51.546;6.912;2022-09-13T09:54:39;27.70;95.20
13652;DHT22;6899;51.546;6.912;2022-09-13T09:57:08;28.00;95.90
13652;DHT22;6899;51.546;6.912;2022-09-13T09:59:35;27.70;91.40
13652;DHT22;6899;51.546;6.912;2022-09-13T10:02:17;27.90;90.20
13652;DHT22;6899;51.546;6.912;2022-09-13T10:04:54;27.80;92.10
13652;DHT22;6899;51.546;6.912;2022-09-13T10:07:30;28.30;93.90
13652;DHT22;6899;51.546;6.912;2022-09-13T10:09:59;28.30;87.60
13652;DHT22;6899;51.546;6.912;2022-09-13T10:12:33;28.30;89.80
13652;DHT22;6899;51.546;6.912;2022-09-13T10:15:12;28.10;90.40
13652;DHT22;6899;51.546;6.912;2022-09-13T10:17:42;28.50;91.60
13652;DHT22;6899;51.546;6.912;2022-09-13T10:20:20;28.70;94.50
13652;DHT22;6899;51.546;6.912;2022-09-13T10:23:10;28.90;90.10
13652;DHT22;6899;51.546;6.912;2022-09-13T10:25:38;28.50;90.60
13652;DHT22;6899;51.546;6.912;2022-09-13T10:28:12;28.40;90.70
13652;DHT22;6899;51.546;6.912;2022-09-13T10:30:42;27.80;91.90
13652;DHT22;6899;51.546;6.912;2022-09-13T10:33:21;27.30;93.00
13652;DHT22;6899;51.546;6.912;2022-09-13T10:35:49;27.50;94.80
13652;DHT22;6899;51.546;6.912;2022-09-13T10:38:25;27.30;96.30
13652;DHT22;6899;51.546;6.912;2022-09-13T10:40:52;27.60;95.10
13652;DHT22;6899;51.546;6.912;2022-09-13T10:43:21;27.80;94.20
13652;DHT22;6899;51.546;6.912;2022-09-13T10:45:50;27.70;93.70
13652;DHT22;6899;51.546;6.912;2022-09-13T10:48:18;28.00;97.10
13652;DHT22;6899;51.546;6.912;2022-09-13T10:51:01;28.20;97.80
13652;DHT22;6899;51.546;6.912;2022-09-13T10:53:33;28.80;96.00
13652;DHT22;6899;51.546;6.912;2022-09-13T10:56:01;29.00;92.40
13652;DHT22;6899;51.546;6.912;2022-09-13T10:58:29;28.80;90.10
13652;DHT22;6899;51.546;6.912;2022-09-13T11:06:59;27.90;92.80
13652;DHT22;6899;51.546;6.912;2022-09-13T11:09:33;28.00;96.50
13652;DHT22;6899;51.546;6.912;2022-09-13T11:12:08;28.60;92.00
13652;DHT22;6899;51.546;6.912;2022-09-13T11:14:54;28.70;91.40
13652;DHT22;6899;51.546;6.912;2022-09-13T11:17:34;29.00;93.10
13652;DHT22;6899;51.546;6.912;2022-09-13T11:20:14;29.10;91.20
13652;DHT22;6899;51.546;6.912;2022-09-13T11:22:58;29.60;91.10
13652;DHT22;6899;51.546;6.912;2022-09-13T11:25:41;29.80;84.50
13652;DHT22;6899;51.546;6.912;2022-09-13T11:28:18;29.50;85.80
13652;DHT22;6899;51.546;6.912;2022-09-13T11:31:09;29.50;85.80
13652;DHT22;6899;51.546;6.912;2022-09-13T11:33:49;30.00;82.50
13652;DHT22;6899;51.546;6.912;2022-09-13T11:36:38;30.20;86.40
13652;DHT22;6899;51.546;6.912;2022-09-13T11:39:12;29.80;79.50
13652;DHT22;6899;51.546;6.912;2022-09-13T11:41:47;29.60;84.50
13652;DHT22;6899;51.546;6.912;2022-09-13T11:44:35;29.70;84.80
13652;DHT22;6899;51.546;6.912;2022-09-13T11:47:14;30.30;79.90
13652;DHT22;6899;51.546;6.912;2022-09-13T11:52:47;30.00;83.30
13652;DHT22;6899;51.546;6.912;2022-09-13T11:55:17;29.80;77.40
13652;DHT22;6899;51.546;6.912;2022-09-13T11:57:48;29.60;80.70
13652;DHT22;6899;51.546;6.912;2022-09-13T12:00:22;30.00;84.30
13652;DHT22;6899;51.546;6.912;2022-09-13T12:02:59;30.00;78.00
13652;DHT22;6899;51.546;6.912;2022-09-13T12:05:31;29.50;80.50
13652;DHT22;6899;51.546;6.912;2022-09-13T12:08:02;29.10;86.40
13652;DHT22;6899;51.546;6.912;2022-09-13T12:10:38;28.80;92.20
13652;DHT22;6899;51.546;6.912;2022-09-13T12:13:09;28.50;85.70
13652;DHT22;6899;51.546;6.912;2022-09-13T12:15:40;28.50;93.00
13652;DHT22;6899;51.546;6.912;2022-09-13T12:18:13;28.60;95.00
13652;DHT22;6899;51.546;6.912;2022-09-13T12:20:45;29.10;89.30
13652;DHT22;6899;51.546;6.912;2022-09-13T12:23:16;29.20;89.00
13652;DHT22;6899;51.546;6.912;2022-09-13T12:25:51;29.30;89.00
13652;DHT22;6899;51.546;6.912;2022-09-13T12:28:23;29.10;87.60
13652;DHT22;6899;51.546;6.912;2022-09-13T12:30:54;29.30;91.00
13652;DHT22;6899;51.546;6.912;2022-09-13T12:33:23;29.10;87.10
13652;DHT22;6899;51.546;6.912;2022-09-13T12:36:14;29.20;91.50
13652;DHT22;6899;51.546;6.912;2022-09-13T12:39:14;29.40;81.40
13652;DHT22;6899;51.546;6.912;2022-09-13T12:41:57;29.20;87.30
13652;DHT22;6899;51.546;6.912;2022-09-13T12:44:45;29.10;88.80
13652;DHT22;6899;51.546;6.912;2022-09-13T12:47:33;29.10;84.30
13652;DHT22;6899;51.546;6.912;2022-09-13T12:53:26;29.20;88.50
13652;DHT22;6899;51.546;6.912;2022-09-13T12:56:11;29.20;88.80
13652;DHT22;6899;51.546;6.912;2022-09-13T12:58:57;29.30;90.50
13652;DHT22;6899;51.546;6.912;2022-09-13T13:01:31;29.40;85.50
13652;DHT22;6899;51.546;6.912;2022-09-13T13:04:02;29.50;87.20
13652;DHT22;6899;51.546;6.912;2022-09-13T13:06:34;29.20;80.50
13652;DHT22;6899;51.546;6.912;2022-09-13T13:09:16;29.50;82.70
13652;DHT22;6899;51.546;6.912;2022-09-13T13:11:46;29.60;80.80
13652;DHT22;6899;51.546;6.912;2022-09-13T13:14:43;29.80;81.90
13652;DHT22;6899;51.546;6.912;2022-09-13T13:17:39;29.80;80.30
13652;DHT22;6899;51.546;6.912;2022-09-13T13:20:38;29.80;79.80
13652;DHT22;6899;51.546;6.912;2022-09-13T13:23:17;29.90;79.30
13652;DHT22;6899;51.546;6.912;2022-09-13T13:26:03;29.60;79.20
13652;DHT22;6899;51.546;6.912;2022-09-13T13:31:39;29.00;90.20
13652;DHT22;6899;51.546;6.912;2022-09-13T13:34:28;28.90;90.10
13652;DHT22;6899;51.546;6.912;2022-09-13T13:36:59;28.70;88.10
13652;DHT22;6899;51.546;6.912;2022-09-13T13:39:41;28.40;92.10
13652;DHT22;6899;51.546;6.912;2022-09-13T13:42:22;28.10;90.10
13652;DHT22;6899;51.546;6.912;2022-09-13T13:45:14;28.00;92.00
13652;DHT22;6899;51.546;6.912;2022-09-13T13:48:08;28.00;91.80
13652;DHT22;6899;51.546;6.912;2022-09-13T13:51:13;27.90;91.70
13652;DHT22;6899;51.546;6.912;2022-09-13T13:53:43;27.80;94.50
13652;DHT22;6899;51.546;6.912;2022-09-13T13:56:21;27.60;92.40
13652;DHT22;6899;51.546;6.912;2022-09-13T13:58:53;27.60;94.60
13652;DHT22;6899;51.546;6.912;2022-09-13T14:01:24;27.60;96.60
13652;DHT22;6899;51.546;6.912;2022-09-13T14:07:06;27.30;98.10
13652;DHT22;6899;51.546;6.912;2022-09-13T14:09:41;27.30;97.30
13652;DHT22;6899;51.546;6.912;2022-09-13T14:12:28;27.30;97.20
13652;DHT22;6899;51.546;6.912;2022-09-13T14:15:19;27.30;98.80
13652;DHT22;6899;51.546;6.912;2022-09-13T14:18:14;27.00;97.60
13652;DHT22;6899;51.546;6.912;2022-09-13T14:20:59;26.90;99.90
13652;DHT22;6899;51.546;6.912;2022-09-13T14:23:26;27.10;99.90
13652;DHT22;6899;51.546;6.912;2022-09-13T14:25:54;27.40;99.40
13652;DHT22;6899;51.546;6.912;2022-09-13T14:28:23;27.50;98.40
13652;DHT22;6899;51.546;6.912;2022-09-13T14:30:55;27.40;99.60
13652;DHT22;6899;51.546;6.912;2022-09-13T14:33:25;27.40;99.20
13652;DHT22;6899;51.546;6.912;2022-09-13T14:35:58;27.40;98.90
13652;DHT22;6899;51.546;6.912;2022-09-13T14:38:26;27.30;99.90
13652;DHT22;6899;51.546;6.912;2022-09-13T14:40:59;27.20;99.90
13652;DHT22;6899;51.546;6.912;2022-09-13T14:43:30;27.40;99.90
13652;DHT22;6899;51.546;6.912;2022-09-13T14:46:02;27.60;99.90
13652;DHT22;6899;51.546;6.912;2022-09-13T14:48:35;27.70;99.50
13652;DHT22;6899;51.546;6.912;2022-09-13T14:51:11;27.90;99.30
13652;DHT22;6899;51.546;6.912;2022-09-13T14:53:41;28.00;99.80
13652;DHT22;6899;51.546;6.912;2022-09-13T14:56:14;28.00;98.30
13652;DHT22;6899;51.546;6.912;2022-09-13T14:58:45;27.70;99.40
13652;DHT22;6899;51.546;6.912;2022-09-13T15:01:15;27.50;99.20
13652;DHT22;6899;51.546;6.912;2022-09-13T15:03:45;27.30;99.90
13652;DHT22;6899;51.546;6.912;2022-09-13T15:06:21;27.20;99.90
13652;DHT22;6899;51.546;6.912;2022-09-13T15:08:48;27.10;99.90
13652;DHT22;6899;51.546;6.912;2022-09-13T15:11:26;27.10;99.90
13652;DHT22;6899;51.546;6.912;2022-09-13T15:14:08;27.10;99.90
13652;DHT22;6899;51.546;6.912;2022-09-13T15:16:46;27.50;99.90
13652;DHT22;6899;51.546;6.912;2022-09-13T15:19:14;27.70;99.50
13652;DHT22;6899;51.546;6.912;2022-09-13T15:21:45;27.90;98.90
13652;DHT22;6899;51.546;6.912;2022-09-13T15:24:20;27.70;98.80
13652;DHT22;6899;51.546;6.912;2022-09-13T15:26:47;27.80;99.80
13652;DHT22;6899;51.546;6.912;2022-09-13T15:29:23;27.50;99.90
13652;DHT22;6899;51.546;6.912;2022-09-13T15:31:57;26.90;99.90
13652;DHT22;6899;51.546;6.912;2022-09-13T15:34:24;26.50;99.90
13652;DHT22;6899;51.546;6.912;2022-09-13T15:37:06;26.10;99.90
13652;DHT22;6899;51.546;6.912;2022-09-13T15:39:42;25.80;99.90
13652;DHT22;6899;51.546;6.912;2022-09-13T15:42:09;25.50;99.90
13652;DHT22;6899;51.546;6.912;2022-09-13T15:44:37;25.30;99.90
13652;DHT22;6899;51.546;6.912;2022-09-13T15:47:08;25.00;99.90
13652;DHT22;6899;51.546;6.912;2022-09-13T15:49:38;24.80;99.90
13652;DHT22;6899;51.546;6.912;2022-09-13T15:52:05;24.80;99.90
13652;DHT22;6899;51.546;6.912;2022-09-13T15:54:34;24.60;99.90
13652;DHT22;6899;51.546;6.912;2022-09-13T15:57:01;24.50;99.90
13652;DHT22;6899;51.546;6.912;2022-09-13T15:59:31;24.40;99.90
13652;DHT22;6899;51.546;6.912;2022-09-13T16:02:01;24.30;99.90
13652;DHT22;6899;51.546;6.912;2022-09-13T16:04:28;24.10;99.90
13652;DHT22;6899;51.546;6.912;2022-09-13T16:06:55;24.00;99.90
13652;DHT22;6899;51.546;6.912;2022-09-13T16:09:23;23.90;99.90
13652;DHT22;6899;51.546;6.912;2022-09-13T16:11:51;23.80;99.90
13652;DHT22;6899;51.546;6.912;2022-09-13T16:14:19;23.80;99.90
13652;DHT22;6899;51.546;6.912;2022-09-13T16:16:46;23.80;99.90
13652;DHT22;6899;51.546;6.912;2022-09-13T16:19:17;23.70;99.90
13652;DHT22;6899;51.546;6.912;2022-09-13T16:21:44;23.70;99.90
13652;DHT22;6899;51.546;6.912;2022-09-13T16:24:11;23.70;99.90
13652;DHT22;6899;51.546;6.912;2022-09-13T16:26:38;23.60;99.90
13652;DHT22;6899;51.546;6.912;2022-09-13T16:29:05;23.60;99.90
13652;DHT22;6899;51.546;6.912;2022-09-13T16:31:35;23.50;99.90
13652;DHT22;6899;51.546;6.912;2022-09-13T16:34:02;23.50;99.90
13652;DHT22;6899;51.546;6.912;2022-09-13T16:36:30;23.40;99.90
13652;DHT22;6899;51.546;6.912;2022-09-13T16:38:59;23.30;99.90
13652;DHT22;6899;51.546;6.912;2022-09-13T16:41:26;23.30;99.90
13652;DHT22;6899;51.546;6.912;2022-09-13T16:43:53;23.30;99.90